sensor_id;sensor_type;location;lat;lon;timestamp;pressure;altitude;pressure_sealevel;temperature;humidity
71970;BME280;59838;52.152;5.436;2023-04-08T00:02:11;102431.69;;;7.07;100.00
71970;BME280;59838;52.152;5.436;2023-04-08T00:04:38;102426.28;;;7.10;100.00
71970;BME280;59838;52.152;5.436;2023-04-08T00:07:04;102417.72;;;7.10;100.00
71970;BME280;59838;52.152;5.436;2023-04-08T00:09:31;102423.94;;;7.07;100.00
71970;BME280;59838;52.152;5.436;2023-04-08T00:11:58;102433.03;;;7.02;100.00
71970;BME280;59838;52.152;5.436;2023-04-08T00:14:24;102418.78;;;6.96;100.00
71970;BME280;59838;52.152;5.436;2023-04-08T00:16:51;102431.13;;;6.92;100.00
71970;BME280;59838;52.152;5.436;2023-04-08T00:19:17;102431.84;;;6.94;100.00
71970;BME280;59838;52.152;5.436;2023-04-08T00:21:44;102420.09;;;6.90;100.00
71970;BME280;59838;52.152;5.436;2023-04-08T00:24:10;102429.59;;;6.90;100.00
71970;BME280;59838;52.152;5.436;2023-04-08T00:26:36;102435.50;;;6.92;100.00
71970;BME280;59838;52.152;5.436;2023-04-08T00:29:03;102437.13;;;6.93;100.00
71970;BME280;59838;52.152;5.436;2023-04-08T00:31:29;102434.41;;;6.94;100.00
71970;BME280;59838;52.152;5.436;2023-04-08T00:33:57;102428.31;;;6.95;100.00
71970;BME280;59838;52.152;5.436;2023-04-08T00:36:24;102435.72;;;6.89;100.00
71970;BME280;59838;52.152;5.436;2023-04-08T00:38:51;102439.13;;;6.78;100.00
71970;BME280;59838;52.152;5.436;2023-04-08T00:41:18;102441.47;;;6.81;100.00
71970;BME280;59838;52.152;5.436;2023-04-08T00:43:44;102435.50;;;6.81;100.00
71970;BME280;59838;52.152;5.436;2023-04-08T00:46:11;102445.94;;;6.79;100.00
71970;BME280;59838;52.152;5.436;2023-04-08T00:48:37;102440.66;;;6.81;100.00
71970;BME280;59838;52.152;5.436;2023-04-08T00:51:04;102444.75;;;6.83;100.00
71970;BME280;59838;52.152;5.436;2023-04-08T00:53:31;102440.44;;;6.84;100.00
71970;BME280;59838;52.152;5.436;2023-04-08T00:55:57;102442.06;;;6.85;100.00
71970;BME280;59838;52.152;5.436;2023-04-08T00:58:27;102443.00;;;6.84;100.00
71970;BME280;59838;52.152;5.436;2023-04-08T01:01:05;102449.34;;;6.80;100.00
71970;BME280;59838;52.152;5.436;2023-04-08T01:03:47;102450.53;;;6.75;100.00
71970;BME280;59838;52.152;5.436;2023-04-08T01:09:04;102447.44;;;6.70;100.00
71970;BME280;59838;52.152;5.436;2023-04-08T01:11:33;102451.56;;;6.73;100.00
71970;BME280;59838;52.152;5.436;2023-04-08T01:14:03;102454.03;;;6.74;100.00
71970;BME280;59838;52.152;5.436;2023-04-08T01:16:32;102456.28;;;6.79;100.00
71970;BME280;59838;52.152;5.436;2023-04-08T01:18:59;102447.69;;;6.78;100.00
71970;BME280;59838;52.152;5.436;2023-04-08T01:21:27;102450.66;;;6.74;100.00
71970;BME280;59838;52.152;5.436;2023-04-08T01:24:05;102456.41;;;6.77;100.00
71970;BME280;59838;52.152;5.436;2023-04-08T01:26:35;102443.72;;;6.74;100.00
71970;BME280;59838;52.152;5.436;2023-04-08T01:29:02;102452.28;;;6.75;100.00
71970;BME280;59838;52.152;5.436;2023-04-08T01:31:30;102455.09;;;6.72;100.00
71970;BME280;59838;52.152;5.436;2023-04-08T01:33:58;102450.53;;;6.53;100.00
71970;BME280;59838;52.152;5.436;2023-04-08T01:36:27;102454.59;;;6.44;100.00
71970;BME280;59838;52.152;5.436;2023-04-08T01:38:55;102452.97;;;6.43;100.00
71970;BME280;59838;52.152;5.436;2023-04-08T01:41:21;102454.47;;;6.46;100.00
71970;BME280;59838;52.152;5.436;2023-04-08T01:43:48;102455.28;;;6.46;100.00
71970;BME280;59838;52.152;5.436;2023-04-08T01:46:16;102455.91;;;6.50;100.00
71970;BME280;59838;52.152;5.436;2023-04-08T01:48:43;102462.59;;;6.52;100.00
71970;BME280;59838;52.152;5.436;2023-04-08T01:51:10;102456.38;;;6.55;100.00
71970;BME280;59838;52.152;5.436;2023-04-08T01:53:36;102464.25;;;6.53;100.00
71970;BME280;59838;52.152;5.436;2023-04-08T01:56:11;102467.84;;;6.39;100.00
71970;BME280;59838;52.152;5.436;2023-04-08T01:58:45;102468.56;;;6.30;100.00
71970;BME280;59838;52.152;5.436;2023-04-08T02:01:16;102467.59;;;6.31;100.00
71970;BME280;59838;52.152;5.436;2023-04-08T02:03:45;102465.59;;;6.35;100.00
71970;BME280;59838;52.152;5.436;2023-04-08T02:06:12;102467.38;;;6.34;100.00
71970;BME280;59838;52.152;5.436;2023-04-08T02:08:39;102465.84;;;6.32;100.00
71970;BME280;59838;52.152;5.436;2023-04-08T02:11:06;102466.78;;;6.31;100.00
71970;BME280;59838;52.152;5.436;2023-04-08T02:13:32;102459.75;;;6.33;100.00
71970;BME280;59838;52.152;5.436;2023-04-08T02:16:09;102459.63;;;6.34;100.00
71970;BME280;59838;52.152;5.436;2023-04-08T02:18:39;102458.69;;;6.35;100.00
71970;BME280;59838;52.152;5.436;2023-04-08T02:21:12;102464.69;;;6.36;100.00
71970;BME280;59838;52.152;5.436;2023-04-08T02:23:40;102467.34;;;6.23;100.00
71970;BME280;59838;52.152;5.436;2023-04-08T02:26:16;102473.06;;;6.15;100.00
71970;BME280;59838;52.152;5.436;2023-04-08T02:28:44;102471.22;;;6.17;100.00
71970;BME280;59838;52.152;5.436;2023-04-08T02:31:15;102468.03;;;6.25;100.00
71970;BME280;59838;52.152;5.436;2023-04-08T02:33:43;102471.81;;;6.21;100.00
71970;BME280;59838;52.152;5.436;2023-04-08T02:36:12;102471.56;;;6.13;100.00
71970;BME280;59838;52.152;5.436;2023-04-08T02:38:39;102470.34;;;6.06;100.00
71970;BME280;59838;52.152;5.436;2023-04-08T02:41:06;102471.28;;;6.04;100.00
71970;BME280;59838;52.152;5.436;2023-04-08T02:43:32;102479.25;;;6.01;100.00
71970;BME280;59838;52.152;5.436;2023-04-08T02:45:59;102472.94;;;5.93;100.00
71970;BME280;59838;52.152;5.436;2023-04-08T02:48:29;102479.06;;;5.92;100.00
71970;BME280;59838;52.152;5.436;2023-04-08T02:50:56;102482.97;;;5.97;100.00
71970;BME280;59838;52.152;5.436;2023-04-08T02:53:23;102481.25;;;5.98;100.00
71970;BME280;59838;52.152;5.436;2023-04-08T02:55:49;102481.13;;;5.99;100.00
71970;BME280;59838;52.152;5.436;2023-04-08T02:58:16;102486.03;;;6.02;100.00
71970;BME280;59838;52.152;5.436;2023-04-08T03:00:42;102494.50;;;6.04;100.00
71970;BME280;59838;52.152;5.436;2023-04-08T03:03:09;102497.72;;;5.95;100.00
71970;BME280;59838;52.152;5.436;2023-04-08T03:05:35;102494.88;;;5.87;100.00
71970;BME280;59838;52.152;5.436;2023-04-08T03:08:02;102500.13;;;5.85;100.00
71970;BME280;59838;52.152;5.436;2023-04-08T03:10:28;102489.59;;;5.89;100.00
71970;BME280;59838;52.152;5.436;2023-04-08T03:12:55;102494.28;;;5.83;100.00
71970;BME280;59838;52.152;5.436;2023-04-08T03:15:22;102499.31;;;5.85;100.00
71970;BME280;59838;52.152;5.436;2023-04-08T03:17:48;102501.69;;;5.88;100.00
71970;BME280;59838;52.152;5.436;2023-04-08T03:20:14;102498.25;;;5.88;100.00
71970;BME280;59838;52.152;5.436;2023-04-08T03:22:41;102495.31;;;5.81;100.00
71970;BME280;59838;52.152;5.436;2023-04-08T03:25:08;102490.38;;;5.78;100.00
71970;BME280;59838;52.152;5.436;2023-04-08T03:27:34;102492.94;;;5.78;100.00
71970;BME280;59838;52.152;5.436;2023-04-08T03:30:01;102490.25;;;5.79;100.00
71970;BME280;59838;52.152;5.436;2023-04-08T03:32:27;102489.22;;;5.82;100.00
71970;BME280;59838;52.152;5.436;2023-04-08T03:34:54;102497.19;;;5.79;100.00
71970;BME280;59838;52.152;5.436;2023-04-08T03:37:20;102496.91;;;5.71;100.00
71970;BME280;59838;52.152;5.436;2023-04-08T03:39:46;102488.91;;;5.62;100.00
71970;BME280;59838;52.152;5.436;2023-04-08T03:42:13;102501.50;;;5.54;100.00
71970;BME280;59838;52.152;5.436;2023-04-08T03:44:39;102495.22;;;5.45;100.00
71970;BME280;59838;52.152;5.436;2023-04-08T03:47:06;102501.44;;;5.43;100.00
71970;BME280;59838;52.152;5.436;2023-04-08T03:49:32;102502.03;;;5.46;100.00
71970;BME280;59838;52.152;5.436;2023-04-08T03:51:59;102501.94;;;5.48;100.00
71970;BME280;59838;52.152;5.436;2023-04-08T03:54:25;102505.75;;;5.42;100.00
71970;BME280;59838;52.152;5.436;2023-04-08T03:56:51;102507.13;;;5.35;100.00
71970;BME280;59838;52.152;5.436;2023-04-08T03:59:18;102506.72;;;5.28;100.00
71970;BME280;59838;52.152;5.436;2023-04-08T04:01:44;102509.63;;;5.24;100.00
71970;BME280;59838;52.152;5.436;2023-04-08T04:04:11;102524.78;;;5.16;100.00
71970;BME280;59838;52.152;5.436;2023-04-08T04:06:38;102511.59;;;5.07;100.00
71970;BME280;59838;52.152;5.436;2023-04-08T04:09:04;102517.56;;;4.95;100.00
71970;BME280;59838;52.152;5.436;2023-04-08T04:11:33;102520.88;;;4.84;100.00
71970;BME280;59838;52.152;5.436;2023-04-08T04:14:00;102527.88;;;4.69;100.00
71970;BME280;59838;52.152;5.436;2023-04-08T04:16:26;102533.19;;;4.53;100.00
71970;BME280;59838;52.152;5.436;2023-04-08T04:18:54;102534.44;;;4.48;100.00
71970;BME280;59838;52.152;5.436;2023-04-08T04:21:21;102537.00;;;4.35;100.00
71970;BME280;59838;52.152;5.436;2023-04-08T04:23:47;102537.47;;;4.27;100.00
71970;BME280;59838;52.152;5.436;2023-04-08T04:26:13;102548.06;;;4.22;100.00
71970;BME280;59838;52.152;5.436;2023-04-08T04:28:40;102550.34;;;4.27;100.00
71970;BME280;59838;52.152;5.436;2023-04-08T04:31:07;102556.44;;;4.26;100.00
71970;BME280;59838;52.152;5.436;2023-04-08T04:33:33;102553.53;;;4.31;100.00
71970;BME280;59838;52.152;5.436;2023-04-08T04:35:59;102555.81;;;4.35;100.00
71970;BME280;59838;52.152;5.436;2023-04-08T04:38:26;102564.56;;;4.33;100.00
71970;BME280;59838;52.152;5.436;2023-04-08T04:40:53;102566.81;;;4.25;100.00
71970;BME280;59838;52.152;5.436;2023-04-08T04:43:19;102562.06;;;4.18;100.00
71970;BME280;59838;52.152;5.436;2023-04-08T04:45:46;102569.53;;;4.09;100.00
71970;BME280;59838;52.152;5.436;2023-04-08T04:48:12;102570.09;;;3.99;100.00
71970;BME280;59838;52.152;5.436;2023-04-08T04:50:38;102570.22;;;3.83;100.00
71970;BME280;59838;52.152;5.436;2023-04-08T04:53:05;102577.69;;;3.74;100.00
71970;BME280;59838;52.152;5.436;2023-04-08T04:55:31;102579.44;;;3.73;100.00
71970;BME280;59838;52.152;5.436;2023-04-08T04:57:58;102582.19;;;3.70;100.00
71970;BME280;59838;52.152;5.436;2023-04-08T05:00:24;102579.47;;;3.59;100.00
71970;BME280;59838;52.152;5.436;2023-04-08T05:02:51;102586.44;;;3.57;100.00
71970;BME280;59838;52.152;5.436;2023-04-08T05:05:18;102583.03;;;3.56;100.00
71970;BME280;59838;52.152;5.436;2023-04-08T05:07:44;102586.63;;;3.54;100.00
71970;BME280;59838;52.152;5.436;2023-04-08T05:10:11;102587.53;;;3.53;100.00
71970;BME280;59838;52.152;5.436;2023-04-08T05:12:37;102589.19;;;3.54;100.00
71970;BME280;59838;52.152;5.436;2023-04-08T05:15:04;102595.13;;;3.83;100.00
71970;BME280;59838;52.152;5.436;2023-04-08T05:17:31;102596.75;;;4.26;100.00
71970;BME280;59838;52.152;5.436;2023-04-08T05:19:58;102601.72;;;4.69;100.00
71970;BME280;59838;52.152;5.436;2023-04-08T05:22:24;102598.16;;;5.10;100.00
71970;BME280;59838;52.152;5.436;2023-04-08T05:24:51;102594.53;;;5.51;100.00
71970;BME280;59838;52.152;5.436;2023-04-08T05:27:17;102601.13;;;5.29;100.00
71970;BME280;59838;52.152;5.436;2023-04-08T05:29:44;102601.97;;;5.17;100.00
71970;BME280;59838;52.152;5.436;2023-04-08T05:32:10;102601.34;;;4.88;100.00
71970;BME280;59838;52.152;5.436;2023-04-08T05:34:36;102597.28;;;4.71;100.00
71970;BME280;59838;52.152;5.436;2023-04-08T05:37:03;102600.28;;;4.90;100.00
71970;BME280;59838;52.152;5.436;2023-04-08T05:39:29;102600.09;;;5.19;100.00
71970;BME280;59838;52.152;5.436;2023-04-08T05:41:56;102601.59;;;5.73;100.00
71970;BME280;59838;52.152;5.436;2023-04-08T05:44:22;102601.06;;;6.18;100.00
71970;BME280;59838;52.152;5.436;2023-04-08T05:46:49;102604.81;;;6.49;97.83
71970;BME280;59838;52.152;5.436;2023-04-08T05:49:16;102602.13;;;6.98;95.54
71970;BME280;59838;52.152;5.436;2023-04-08T05:51:42;102608.38;;;7.63;92.66
71970;BME280;59838;52.152;5.436;2023-04-08T05:54:09;102603.50;;;8.03;89.33
71970;BME280;59838;52.152;5.436;2023-04-08T05:56:35;102609.38;;;8.38;86.00
71970;BME280;59838;52.152;5.436;2023-04-08T05:59:02;102608.69;;;8.68;84.42
71970;BME280;59838;52.152;5.436;2023-04-08T06:01:28;102604.69;;;9.37;82.05
71970;BME280;59838;52.152;5.436;2023-04-08T06:03:55;102607.50;;;9.24;79.28
71970;BME280;59838;52.152;5.436;2023-04-08T06:06:22;102608.00;;;9.49;78.80
71970;BME280;59838;52.152;5.436;2023-04-08T06:08:50;102604.81;;;9.86;77.62
71970;BME280;59838;52.152;5.436;2023-04-08T06:11:17;102611.22;;;9.72;76.70
71970;BME280;59838;52.152;5.436;2023-04-08T06:13:44;102604.81;;;9.36;77.55
71970;BME280;59838;52.152;5.436;2023-04-08T06:18:38;102609.44;;;9.32;76.23
71970;BME280;59838;52.152;5.436;2023-04-08T06:21:04;102615.06;;;9.97;75.71
71970;BME280;59838;52.152;5.436;2023-04-08T06:23:31;102614.13;;;10.76;73.62
71970;BME280;59838;52.152;5.436;2023-04-08T06:25:58;102608.59;;;11.64;70.97
71970;BME280;59838;52.152;5.436;2023-04-08T06:28:24;102623.03;;;11.59;68.41
71970;BME280;59838;52.152;5.436;2023-04-08T06:30:51;102623.19;;;11.20;67.72
71970;BME280;59838;52.152;5.436;2023-04-08T06:33:18;102624.25;;;10.89;68.85
71970;BME280;59838;52.152;5.436;2023-04-08T06:35:44;102625.94;;;11.18;68.91
71970;BME280;59838;52.152;5.436;2023-04-08T06:38:11;102635.66;;;11.53;67.45
71970;BME280;59838;52.152;5.436;2023-04-08T06:40:38;102639.31;;;11.61;66.61
71970;BME280;59838;52.152;5.436;2023-04-08T06:43:05;102641.28;;;11.21;66.13
71970;BME280;59838;52.152;5.436;2023-04-08T06:45:34;102645.72;;;11.39;64.47
71970;BME280;59838;52.152;5.436;2023-04-08T06:48:01;102648.81;;;11.14;64.79
71970;BME280;59838;52.152;5.436;2023-04-08T06:50:27;102662.66;;;11.05;66.55
71970;BME280;59838;52.152;5.436;2023-04-08T06:52:54;102650.03;;;11.20;64.63
71970;BME280;59838;52.152;5.436;2023-04-08T06:55:20;102652.91;;;11.55;63.66
71970;BME280;59838;52.152;5.436;2023-04-08T06:57:47;102657.19;;;11.46;64.47
71970;BME280;59838;52.152;5.436;2023-04-08T07:00:13;102656.00;;;11.68;63.74
71970;BME280;59838;52.152;5.436;2023-04-08T07:02:40;102668.19;;;11.67;63.55
71970;BME280;59838;52.152;5.436;2023-04-08T07:05:07;102665.81;;;11.46;62.83
71970;BME280;59838;52.152;5.436;2023-04-08T07:07:33;102668.81;;;11.51;63.29
71970;BME280;59838;52.152;5.436;2023-04-08T07:10:00;102671.53;;;11.87;62.59
71970;BME280;59838;52.152;5.436;2023-04-08T07:12:27;102673.44;;;11.58;61.91
71970;BME280;59838;52.152;5.436;2023-04-08T07:14:53;102674.00;;;12.35;61.49
71970;BME280;59838;52.152;5.436;2023-04-08T07:17:20;102683.31;;;11.92;60.87
71970;BME280;59838;52.152;5.436;2023-04-08T07:19:46;102682.63;;;11.89;60.17
71970;BME280;59838;52.152;5.436;2023-04-08T07:22:13;102683.75;;;11.77;62.14
71970;BME280;59838;52.152;5.436;2023-04-08T07:24:39;102687.97;;;12.16;61.65
71970;BME280;59838;52.152;5.436;2023-04-08T07:27:08;102698.50;;;11.96;61.65
71970;BME280;59838;52.152;5.436;2023-04-08T07:29:34;102688.69;;;12.08;61.44
71970;BME280;59838;52.152;5.436;2023-04-08T07:32:00;102697.47;;;11.79;61.96
71970;BME280;59838;52.152;5.436;2023-04-08T07:34:27;102700.13;;;12.25;61.15
71970;BME280;59838;52.152;5.436;2023-04-08T07:36:53;102697.50;;;12.07;60.86
71970;BME280;59838;52.152;5.436;2023-04-08T07:39:20;102699.53;;;12.13;61.32
71970;BME280;59838;52.152;5.436;2023-04-08T07:41:46;102699.38;;;12.33;60.89
71970;BME280;59838;52.152;5.436;2023-04-08T07:44:13;102703.41;;;12.45;60.46
71970;BME280;59838;52.152;5.436;2023-04-08T07:46:42;102700.78;;;12.45;60.43
71970;BME280;59838;52.152;5.436;2023-04-08T07:49:10;102693.78;;;13.08;58.91
71970;BME280;59838;52.152;5.436;2023-04-08T07:51:37;102698.00;;;13.27;60.29
71970;BME280;59838;52.152;5.436;2023-04-08T07:54:04;102700.94;;;13.58;57.66
71970;BME280;59838;52.152;5.436;2023-04-08T07:56:31;102707.59;;;13.26;59.11
71970;BME280;59838;52.152;5.436;2023-04-08T07:58:57;102703.13;;;13.37;58.78
71970;BME280;59838;52.152;5.436;2023-04-08T08:01:24;102701.00;;;12.88;59.69
71970;BME280;59838;52.152;5.436;2023-04-08T08:03:51;102695.19;;;13.02;60.06
71970;BME280;59838;52.152;5.436;2023-04-08T08:06:19;102710.41;;;11.14;62.56
71970;BME280;59838;52.152;5.436;2023-04-08T08:08:46;102713.41;;;10.31;66.96
71970;BME280;59838;52.152;5.436;2023-04-08T08:11:12;102721.88;;;9.83;69.50
71970;BME280;59838;52.152;5.436;2023-04-08T08:13:39;102725.84;;;9.46;72.30
71970;BME280;59838;52.152;5.436;2023-04-08T08:16:05;102719.69;;;9.47;73.30
71970;BME280;59838;52.152;5.436;2023-04-08T08:18:34;102723.16;;;9.58;73.66
71970;BME280;59838;52.152;5.436;2023-04-08T08:21:01;102715.88;;;9.51;72.72
71970;BME280;59838;52.152;5.436;2023-04-08T08:23:28;102722.88;;;9.30;72.70
71970;BME280;59838;52.152;5.436;2023-04-08T08:26:02;102724.88;;;9.26;76.13
71970;BME280;59838;52.152;5.436;2023-04-08T08:28:28;102720.59;;;9.37;75.49
71970;BME280;59838;52.152;5.436;2023-04-08T08:30:55;102722.09;;;9.39;76.99
71970;BME280;59838;52.152;5.436;2023-04-08T08:33:22;102728.56;;;9.45;77.85
71970;BME280;59838;52.152;5.436;2023-04-08T08:35:48;102727.50;;;9.57;77.80
71970;BME280;59838;52.152;5.436;2023-04-08T08:38:15;102721.63;;;9.55;75.91
71970;BME280;59838;52.152;5.436;2023-04-08T08:40:43;102720.75;;;9.66;76.53
71970;BME280;59838;52.152;5.436;2023-04-08T08:43:10;102724.53;;;9.62;76.90
71970;BME280;59838;52.152;5.436;2023-04-08T08:45:40;102725.63;;;9.59;76.66
71970;BME280;59838;52.152;5.436;2023-04-08T08:48:07;102723.97;;;9.89;77.99
71970;BME280;59838;52.152;5.436;2023-04-08T08:50:34;102719.72;;;10.29;75.21
71970;BME280;59838;52.152;5.436;2023-04-08T08:53:02;102726.72;;;10.67;75.15
71970;BME280;59838;52.152;5.436;2023-04-08T08:55:31;102730.25;;;10.27;73.41
71970;BME280;59838;52.152;5.436;2023-04-08T08:58:20;102731.38;;;9.94;74.75
71970;BME280;59838;52.152;5.436;2023-04-08T09:00:47;102736.06;;;10.10;74.91
71970;BME280;59838;52.152;5.436;2023-04-08T09:03:21;102732.34;;;10.02;74.79
71970;BME280;59838;52.152;5.436;2023-04-08T09:05:51;102739.88;;;10.05;74.32
71970;BME280;59838;52.152;5.436;2023-04-08T09:08:24;102746.13;;;10.34;77.16
71970;BME280;59838;52.152;5.436;2023-04-08T09:10:55;102739.06;;;10.55;75.85
71970;BME280;59838;52.152;5.436;2023-04-08T09:13:22;102739.19;;;10.64;75.87
71970;BME280;59838;52.152;5.436;2023-04-08T09:16:00;102741.38;;;10.58;72.50
71970;BME280;59838;52.152;5.436;2023-04-08T09:18:28;102752.72;;;10.77;74.27
71970;BME280;59838;52.152;5.436;2023-04-08T09:20:55;102742.63;;;11.03;73.69
71970;BME280;59838;52.152;5.436;2023-04-08T09:23:21;102753.03;;;11.03;71.02
71970;BME280;59838;52.152;5.436;2023-04-08T09:25:47;102748.25;;;10.79;72.82
71970;BME280;59838;52.152;5.436;2023-04-08T09:28:18;102751.78;;;10.88;73.21
71970;BME280;59838;52.152;5.436;2023-04-08T09:30:46;102755.78;;;10.72;71.79
71970;BME280;59838;52.152;5.436;2023-04-08T09:33:13;102755.19;;;10.69;73.39
71970;BME280;59838;52.152;5.436;2023-04-08T09:35:39;102753.84;;;10.65;73.94
71970;BME280;59838;52.152;5.436;2023-04-08T09:38:06;102754.25;;;10.79;70.96
71970;BME280;59838;52.152;5.436;2023-04-08T09:40:33;102761.78;;;10.73;70.79
71970;BME280;59838;52.152;5.436;2023-04-08T09:43:04;102761.78;;;10.83;71.51
71970;BME280;59838;52.152;5.436;2023-04-08T09:45:32;102756.84;;;10.89;71.84
71970;BME280;59838;52.152;5.436;2023-04-08T09:50:42;102760.97;;;11.02;69.59
71970;BME280;59838;52.152;5.436;2023-04-08T09:53:21;102756.69;;;11.20;69.29
71970;BME280;59838;52.152;5.436;2023-04-08T09:55:54;102758.06;;;11.24;69.92
71970;BME280;59838;52.152;5.436;2023-04-08T09:58:27;102749.66;;;11.40;71.72
71970;BME280;59838;52.152;5.436;2023-04-08T10:00:54;102750.31;;;11.62;72.61
71970;BME280;59838;52.152;5.436;2023-04-08T10:03:29;102753.84;;;11.61;72.59
71970;BME280;59838;52.152;5.436;2023-04-08T10:06:00;102748.38;;;11.64;71.14
71970;BME280;59838;52.152;5.436;2023-04-08T10:08:29;102746.06;;;11.61;71.91
71970;BME280;59838;52.152;5.436;2023-04-08T10:10:56;102742.81;;;11.86;66.63
71970;BME280;59838;52.152;5.436;2023-04-08T10:13:24;102740.13;;;11.68;66.44
71970;BME280;59838;52.152;5.436;2023-04-08T10:18:42;102741.94;;;11.68;68.09
71970;BME280;59838;52.152;5.436;2023-04-08T10:23:58;102740.47;;;12.39;65.64
71970;BME280;59838;52.152;5.436;2023-04-08T10:26:34;102734.06;;;12.87;66.28
71970;BME280;59838;52.152;5.436;2023-04-08T10:29:30;102735.28;;;13.19;64.82
71970;BME280;59838;52.152;5.436;2023-04-08T10:31:57;102735.50;;;12.82;62.53
71970;BME280;59838;52.152;5.436;2023-04-08T10:34:25;102739.38;;;12.41;66.18
71970;BME280;59838;52.152;5.436;2023-04-08T10:36:54;102745.97;;;12.36;66.88
71970;BME280;59838;52.152;5.436;2023-04-08T10:39:21;102741.00;;;12.24;64.33
71970;BME280;59838;52.152;5.436;2023-04-08T10:41:48;102746.25;;;12.15;64.77
71970;BME280;59838;52.152;5.436;2023-04-08T10:44:19;102746.59;;;12.48;65.34
71970;BME280;59838;52.152;5.436;2023-04-08T10:46:48;102743.34;;;12.46;62.54
71970;BME280;59838;52.152;5.436;2023-04-08T10:49:15;102740.72;;;12.64;67.03
71970;BME280;59838;52.152;5.436;2023-04-08T10:51:43;102739.75;;;12.65;64.75
71970;BME280;59838;52.152;5.436;2023-04-08T10:54:12;102737.13;;;12.47;61.32
71970;BME280;59838;52.152;5.436;2023-04-08T10:56:49;102731.78;;;12.48;62.22
71970;BME280;59838;52.152;5.436;2023-04-08T10:59:25;102730.81;;;12.67;62.30
71970;BME280;59838;52.152;5.436;2023-04-08T11:01:52;102726.59;;;12.92;60.63
71970;BME280;59838;52.152;5.436;2023-04-08T11:04:20;102731.16;;;12.90;62.14
71970;BME280;59838;52.152;5.436;2023-04-08T11:06:49;102722.25;;;13.19;61.95
71970;BME280;59838;52.152;5.436;2023-04-08T11:09:15;102722.56;;;13.42;57.88
71970;BME280;59838;52.152;5.436;2023-04-08T11:11:43;102727.06;;;13.58;61.70
71970;BME280;59838;52.152;5.436;2023-04-08T11:14:11;102719.25;;;13.66;56.62
71970;BME280;59838;52.152;5.436;2023-04-08T11:16:38;102730.25;;;13.44;55.63
71970;BME280;59838;52.152;5.436;2023-04-08T11:19:05;102729.31;;;13.53;54.48
71970;BME280;59838;52.152;5.436;2023-04-08T11:21:36;102725.88;;;13.87;55.61
71970;BME280;59838;52.152;5.436;2023-04-08T11:24:10;102721.31;;;13.97;51.51
71970;BME280;59838;52.152;5.436;2023-04-08T11:26:38;102722.06;;;13.73;50.25
71970;BME280;59838;52.152;5.436;2023-04-08T11:29:05;102724.44;;;13.58;51.09
71970;BME280;59838;52.152;5.436;2023-04-08T11:31:32;102723.53;;;13.67;54.53
71970;BME280;59838;52.152;5.436;2023-04-08T11:33:59;102724.78;;;13.63;55.46
71970;BME280;59838;52.152;5.436;2023-04-08T11:36:27;102718.53;;;13.48;58.39
71970;BME280;59838;52.152;5.436;2023-04-08T11:38:54;102722.59;;;13.24;58.18
71970;BME280;59838;52.152;5.436;2023-04-08T11:41:21;102716.47;;;13.07;58.01
71970;BME280;59838;52.152;5.436;2023-04-08T11:43:55;102720.91;;;13.15;55.01
71970;BME280;59838;52.152;5.436;2023-04-08T11:46:22;102726.56;;;13.28;56.72
71970;BME280;59838;52.152;5.436;2023-04-08T11:49:05;102728.94;;;13.40;55.00
71970;BME280;59838;52.152;5.436;2023-04-08T11:51:34;102729.13;;;13.46;55.85
71970;BME280;59838;52.152;5.436;2023-04-08T11:54:04;102727.88;;;13.59;54.66
71970;BME280;59838;52.152;5.436;2023-04-08T11:56:44;102727.38;;;13.55;50.71
71970;BME280;59838;52.152;5.436;2023-04-08T11:59:12;102725.06;;;13.52;50.87
71970;BME280;59838;52.152;5.436;2023-04-08T12:01:38;102724.09;;;13.27;48.42
71970;BME280;59838;52.152;5.436;2023-04-08T12:04:04;102729.47;;;13.51;46.90
71970;BME280;59838;52.152;5.436;2023-04-08T12:06:32;102721.25;;;13.38;50.97
71970;BME280;59838;52.152;5.436;2023-04-08T12:08:59;102719.00;;;13.86;49.48
71970;BME280;59838;52.152;5.436;2023-04-08T12:11:25;102726.16;;;13.76;48.93
71970;BME280;59838;52.152;5.436;2023-04-08T12:13:52;102724.75;;;13.98;47.55
71970;BME280;59838;52.152;5.436;2023-04-08T12:16:19;102721.69;;;14.11;47.94
71970;BME280;59838;52.152;5.436;2023-04-08T12:18:45;102719.63;;;14.31;47.85
71970;BME280;59838;52.152;5.436;2023-04-08T12:21:12;102720.75;;;14.20;43.38
71970;BME280;59838;52.152;5.436;2023-04-08T12:23:39;102719.09;;;14.19;44.22
71970;BME280;59838;52.152;5.436;2023-04-08T12:26:05;102721.53;;;14.20;43.35
71970;BME280;59838;52.152;5.436;2023-04-08T12:28:32;102727.06;;;14.09;44.73
71970;BME280;59838;52.152;5.436;2023-04-08T12:31:00;102726.25;;;14.00;46.29
71970;BME280;59838;52.152;5.436;2023-04-08T12:33:26;102732.25;;;13.93;46.17
71970;BME280;59838;52.152;5.436;2023-04-08T12:35:53;102724.63;;;13.65;50.00
71970;BME280;59838;52.152;5.436;2023-04-08T12:38:19;102718.41;;;13.58;45.54
71970;BME280;59838;52.152;5.436;2023-04-08T12:40:46;102715.75;;;13.49;46.59
71970;BME280;59838;52.152;5.436;2023-04-08T12:43:15;102720.88;;;13.59;49.15
71970;BME280;59838;52.152;5.436;2023-04-08T12:45:42;102708.91;;;13.99;47.94
71970;BME280;59838;52.152;5.436;2023-04-08T12:48:09;102711.59;;;13.73;43.88
71970;BME280;59838;52.152;5.436;2023-04-08T12:50:35;102710.84;;;13.46;46.98
71970;BME280;59838;52.152;5.436;2023-04-08T12:53:02;102713.34;;;13.56;47.81
71970;BME280;59838;52.152;5.436;2023-04-08T12:55:28;102720.78;;;13.77;48.00
71970;BME280;59838;52.152;5.436;2023-04-08T12:57:54;102719.50;;;13.89;48.08
71970;BME280;59838;52.152;5.436;2023-04-08T13:00:21;102715.28;;;13.88;49.31
71970;BME280;59838;52.152;5.436;2023-04-08T13:02:48;102719.00;;;13.43;55.21
71970;BME280;59838;52.152;5.436;2023-04-08T13:05:14;102712.66;;;13.28;56.80
71970;BME280;59838;52.152;5.436;2023-04-08T13:07:44;102723.88;;;13.20;56.75